createdAt,value
2023-02-17T00:00:11.360Z,99344.34
2023-02-17T00:02:58.805Z,99340.75
2023-02-17T00:05:26.277Z,99329.91
2023-02-17T00:07:53.403Z,99340.66
2023-02-17T00:10:20.176Z,99339.94
2023-02-17T00:12:47.253Z,99329.25
2023-02-17T00:15:13.980Z,99341.84
2023-02-17T00:17:41.051Z,99328.22
2023-02-17T00:20:09.284Z,99328.41
2023-02-17T00:22:36.381Z,99338.28
2023-02-17T00:25:03.143Z,99333.81
2023-02-17T00:27:30.226Z,99344.50
2023-02-17T00:29:56.997Z,99338.94
2023-02-17T00:32:24.094Z,99334.59
2023-02-17T00:34:52.631Z,99324.06
2023-02-17T00:37:19.647Z,99319.63
2023-02-17T00:39:46.409Z,99318.78
2023-02-17T00:42:13.480Z,99325.94
2023-02-17T00:44:40.242Z,99311.91
2023-02-17T00:47:07.328Z,99314.53
2023-02-17T00:49:34.106Z,99316.31
2023-02-17T00:52:01.882Z,99305.47
2023-02-17T00:54:29.290Z,99299.28
2023-02-17T00:56:56.465Z,99293.34
2023-02-17T00:59:23.217Z,99301.38
2023-02-17T01:01:50.343Z,99302.88
2023-02-17T01:04:17.147Z,99300.41
2023-02-17T01:06:44.264Z,99297.53
2023-02-17T01:09:13.524Z,99289.81
2023-02-17T01:11:40.920Z,99294.34
2023-02-17T01:14:07.906Z,99297.91
2023-02-17T01:16:38.692Z,99293.41
2023-02-17T01:19:09.043Z,99296.22
2023-02-17T01:21:36.132Z,99302.34
2023-02-17T01:24:04.666Z,99299.69
2023-02-17T01:26:32.446Z,99298.97
2023-02-17T01:28:59.217Z,99292.69
2023-02-17T01:31:27.266Z,99286.69
2023-02-17T01:33:56.087Z,99290.22
2023-02-17T01:36:23.137Z,99288.28
2023-02-17T01:38:50.034Z,99290.94
2023-02-17T01:41:17.919Z,99291.09
2023-02-17T01:44:30.082Z,99288.41
2023-02-17T01:46:57.239Z,99291.03
2023-02-17T01:49:26.934Z,99289.44
2023-02-17T01:52:21.235Z,99292.97
2023-02-17T01:54:53.823Z,99283.22
2023-02-17T01:57:23.236Z,99284.09
2023-02-17T01:59:50.554Z,99276.28
2023-02-17T02:02:17.883Z,99273.63
2023-02-17T02:04:46.037Z,99261.94
2023-02-17T02:07:21.579Z,99270.16
2023-02-17T02:09:53.154Z,99261.28
2023-02-17T02:12:28.452Z,99260.31
2023-02-17T02:14:57.424Z,99261.34
2023-02-17T02:17:50.602Z,99255.06
2023-02-17T02:20:41.658Z,99256.88
2023-02-17T02:23:46.315Z,99255.19
2023-02-17T02:26:31.143Z,99251.78
2023-02-17T02:29:19.638Z,99248.41
2023-02-17T02:32:34.813Z,99245.31
2023-02-17T02:35:15.542Z,99240.91
2023-02-17T02:38:07.217Z,99228.34
2023-02-17T02:40:36.778Z,99220.53
2023-02-17T02:43:03.692Z,99218.94
2023-02-17T02:45:30.863Z,99229.78
2023-02-17T02:47:57.817Z,99234.19
2023-02-17T02:50:50.576Z,99217.97
2023-02-17T02:53:36.405Z,99211.66
2023-02-17T02:56:27.096Z,99218.22
2023-02-17T02:59:31.739Z,99228.78
2023-02-17T03:02:11.250Z,99236.66
2023-02-17T03:04:38.972Z,99235.56
2023-02-17T03:07:21.191Z,99227.63
2023-02-17T03:09:51.745Z,99215.13
2023-02-17T03:12:19.490Z,99200.25
2023-02-17T03:14:47.911Z,99203.66
2023-02-17T03:17:14.948Z,99200.84
2023-02-17T03:19:41.741Z,99202.72
2023-02-17T03:22:14.266Z,99201.13
2023-02-17T03:24:41.073Z,99207.34
2023-02-17T03:27:08.126Z,99212.44
2023-02-17T03:29:34.888Z,99214.31
2023-02-17T03:32:01.985Z,99209.63
2023-02-17T03:34:28.755Z,99198.44
2023-02-17T03:36:55.905Z,99199.34
2023-02-17T03:39:22.685Z,99199.34
2023-02-17T03:41:51.697Z,99201.81
2023-02-17T03:44:18.811Z,99196.41
2023-02-17T03:46:46.393Z,99199.09
2023-02-17T03:49:13.234Z,99199.84
2023-02-17T03:51:40.342Z,99197.06
2023-02-17T03:54:07.118Z,99197.94
2023-02-17T03:56:34.159Z,99194.50
2023-02-17T03:59:00.957Z,99195.50
2023-02-17T04:01:28.018Z,99192.88
2023-02-17T04:03:54.931Z,99191.13
2023-02-17T04:06:22.141Z,99180.31
2023-02-17T04:08:48.930Z,99189.88
2023-02-17T04:11:16.107Z,99186.47
2023-02-17T04:13:42.884Z,99194.56
2023-02-17T04:16:10.267Z,99188.06
2023-02-17T04:18:37.497Z,99192.59
2023-02-17T04:21:05.143Z,99188.25
2023-02-17T04:23:31.952Z,99182.91
2023-02-17T04:25:59.004Z,99185.59
2023-02-17T04:28:26.387Z,99180.97
2023-02-17T04:30:53.595Z,99187.13
2023-02-17T04:33:20.397Z,99180.09
2023-02-17T04:35:47.546Z,99167.38
2023-02-17T04:38:14.337Z,99170.13
2023-02-17T04:40:41.550Z,99173.66
2023-02-17T04:43:08.592Z,99180.97
2023-02-17T04:45:36.721Z,99182.56
2023-02-17T04:48:03.703Z,99171.88
2023-02-17T04:50:30.824Z,99166.69
2023-02-17T04:52:57.569Z,99156.78
2023-02-17T04:55:24.646Z,99167.47
2023-02-17T04:57:51.369Z,99158.31
2023-02-17T05:00:18.724Z,99142.34
2023-02-17T05:02:45.461Z,99149.53
2023-02-17T05:05:15.324Z,99157.41
2023-02-17T05:07:42.901Z,99153.81
2023-02-17T05:10:10.221Z,99145.72
2023-02-17T05:12:36.981Z,99140.47
2023-02-17T05:15:04.440Z,99138.78
2023-02-17T05:17:31.264Z,99139.50
2023-02-17T05:19:58.587Z,99138.56
2023-02-17T05:22:25.518Z,99143.00
2023-02-17T05:24:52.788Z,99134.97
2023-02-17T05:27:19.564Z,99139.06
2023-02-17T05:29:46.714Z,99134.00
2023-02-17T05:32:13.478Z,99143.69
2023-02-17T05:34:40.611Z,99152.44
2023-02-17T05:37:07.346Z,99151.44
2023-02-17T05:39:34.420Z,99151.31
2023-02-17T05:42:01.189Z,99137.19
2023-02-17T05:44:28.319Z,99134.44
2023-02-17T05:46:55.066Z,99124.84
2023-02-17T05:49:22.192Z,99126.41
2023-02-17T05:51:48.949Z,99141.38
2023-02-17T05:54:15.981Z,99136.88
2023-02-17T05:56:42.763Z,99139.69
2023-02-17T05:59:09.955Z,99133.44
2023-02-17T06:01:37.706Z,99137.66
2023-02-17T06:04:04.914Z,99138.38
2023-02-17T06:06:31.685Z,99124.31
2023-02-17T06:08:58.824Z,99118.88
2023-02-17T06:11:25.717Z,99113.59
2023-02-17T06:13:52.754Z,99110.94
2023-02-17T06:16:20.066Z,99101.84
2023-02-17T06:18:47.174Z,99111.50
2023-02-17T06:21:13.998Z,99113.38
2023-02-17T06:23:41.032Z,99111.66
2023-02-17T06:26:08.250Z,99113.09
2023-02-17T06:28:35.345Z,99108.59
2023-02-17T06:31:02.229Z,99103.25
2023-02-17T06:33:29.387Z,99099.63
2023-02-17T06:35:56.399Z,99102.13
2023-02-17T06:38:23.576Z,99107.56
2023-02-17T06:40:50.320Z,99104.75
2023-02-17T06:43:17.387Z,99100.34
2023-02-17T06:45:44.241Z,99095.63
2023-02-17T06:48:11.373Z,99092.34
2023-02-17T06:50:38.285Z,99098.38
2023-02-17T06:53:05.489Z,99093.88
2023-02-17T06:55:32.313Z,99099.00
2023-02-17T06:57:59.402Z,99108.84
2023-02-17T07:00:27.123Z,99110.41
2023-02-17T07:02:54.406Z,99105.91
2023-02-17T07:05:21.356Z,99100.66
2023-02-17T07:07:48.386Z,99103.25
2023-02-17T07:10:15.176Z,99103.94
2023-02-17T07:12:42.211Z,99103.09
2023-02-17T07:15:12.012Z,99100.03
2023-02-17T07:17:39.583Z,99110.72
2023-02-17T07:20:07.158Z,99109.06
2023-02-17T07:22:34.216Z,99116.47
2023-02-17T07:25:01.031Z,99106.94
2023-02-17T07:27:28.198Z,99110.56
2023-02-17T07:29:55.602Z,99112.13
2023-02-17T07:32:22.849Z,99106.56
2023-02-17T07:34:49.621Z,99103.09
2023-02-17T07:37:16.740Z,99095.19
2023-02-17T07:39:43.619Z,99089.38
2023-02-17T07:42:11.486Z,99095.19
2023-02-17T07:44:38.221Z,99099.78
2023-02-17T07:47:05.302Z,99103.75
2023-02-17T07:49:32.129Z,99094.19
2023-02-17T07:51:59.209Z,99090.16
2023-02-17T07:54:26.075Z,99088.56
2023-02-17T07:56:53.187Z,99088.84
2023-02-17T07:59:19.971Z,99083.34
2023-02-17T08:01:47.179Z,99077.75
2023-02-17T08:04:13.973Z,99082.22
2023-02-17T08:06:41.094Z,99084.41
2023-02-17T08:09:28.422Z,99084.13
2023-02-17T08:12:13.962Z,99065.16
2023-02-17T08:14:40.860Z,99055.91
2023-02-17T08:17:08.025Z,99048.75
2023-02-17T08:19:47.426Z,99056.34
2023-02-17T08:22:16.099Z,99061.09
2023-02-17T08:24:42.994Z,99055.25
2023-02-17T08:27:10.115Z,99057.16
2023-02-17T08:29:36.919Z,99060.59
2023-02-17T08:32:04.198Z,99057.94
2023-02-17T08:34:33.912Z,99051.44
2023-02-17T08:37:01.686Z,99045.31
2023-02-17T08:39:28.701Z,99067.66
2023-02-17T08:41:55.906Z,99065.19
2023-02-17T08:44:22.898Z,99063.38
2023-02-17T08:46:50.580Z,99063.28
2023-02-17T08:49:18.911Z,99072.78
2023-02-17T08:51:46.104Z,99068.28
2023-02-17T08:54:12.937Z,99076.41
2023-02-17T08:56:40.296Z,99062.16
2023-02-17T08:59:07.747Z,99066.94
2023-02-17T09:01:35.492Z,99069.59
2023-02-17T09:04:02.891Z,99074.69
2023-02-17T09:06:50.125Z,99073.91
2023-02-17T09:09:18.020Z,99067.44
2023-02-17T09:11:45.366Z,99074.69
2023-02-17T09:14:12.358Z,99067.44
2023-02-17T09:16:41.417Z,99049.34
2023-02-17T09:19:08.445Z,99046.47
2023-02-17T09:21:35.529Z,99040.16
2023-02-17T09:24:02.293Z,99046.38
2023-02-17T09:26:29.684Z,99048.28
2023-02-17T09:28:57.956Z,99048.28
2023-02-17T09:31:26.157Z,99042.19
2023-02-17T09:33:53.152Z,99044.56
2023-02-17T09:36:28.415Z,99030.50
2023-02-17T09:38:55.337Z,99035.56
2023-02-17T09:41:42.369Z,99028.50
2023-02-17T09:44:39.429Z,99032.97
2023-02-17T09:47:16.370Z,99023.16
2023-02-17T09:49:45.702Z,99021.72
2023-02-17T09:52:31.676Z,99020.09
2023-02-17T09:55:06.815Z,99022.59
2023-02-17T09:57:40.461Z,99020.72
2023-02-17T10:00:08.863Z,99032.22
2023-02-17T10:02:39.429Z,99033.75
2023-02-17T10:05:07.883Z,99036.59
2023-02-17T10:07:47.344Z,99034.00
2023-02-17T10:10:35.697Z,99034.72
2023-02-17T10:13:02.963Z,99030.22
2023-02-17T10:15:32.182Z,99031.16
2023-02-17T10:18:11.803Z,99022.94
2023-02-17T10:20:42.922Z,99026.38
2023-02-17T10:23:19.344Z,99018.09
2023-02-17T10:26:01.468Z,99008.22
2023-02-17T10:28:56.328Z,99014.63
2023-02-17T10:31:37.871Z,99006.50
2023-02-17T10:34:38.091Z,99007.97
2023-02-17T10:37:13.145Z,98993.19
2023-02-17T10:39:48.726Z,99001.75
2023-02-17T10:42:28.663Z,98992.56
2023-02-17T10:45:00.885Z,99001.97
2023-02-17T10:47:27.690Z,98992.09
2023-02-17T10:49:55.224Z,98992.09
2023-02-17T10:52:24.505Z,98994.97
2023-02-17T10:54:59.930Z,98996.63
2023-02-17T10:57:30.184Z,98994.53
2023-02-17T10:59:57.284Z,98987.59
2023-02-17T11:02:41.329Z,98986.56
2023-02-17T11:05:09.157Z,98969.16
2023-02-17T11:07:37.311Z,98966.66
2023-02-17T11:10:37.563Z,98966.47
2023-02-17T11:13:05.082Z,98956.41
2023-02-17T11:15:43.179Z,98948.19
2023-02-17T11:18:11.843Z,98944.56
2023-02-17T11:20:39.066Z,98933.84
2023-02-17T11:23:16.601Z,98938.41
2023-02-17T11:25:43.798Z,98920.22
2023-02-17T11:28:14.755Z,98921.50
2023-02-17T11:30:53.012Z,98931.66
2023-02-17T11:33:22.702Z,98907.22
2023-02-17T11:35:55.852Z,98921.59
2023-02-17T11:38:28.132Z,98910.59
2023-02-17T11:41:00.297Z,98912.69
2023-02-17T11:43:31.285Z,98900.72
2023-02-17T11:46:01.144Z,98913.28
2023-02-17T11:48:28.446Z,98898.97
2023-02-17T11:51:15.016Z,98908.00
2023-02-17T11:54:17.176Z,98909.63
2023-02-17T11:57:07.418Z,98898.31
2023-02-17T11:59:45.283Z,98887.59
2023-02-17T12:02:38.262Z,98882.81
2023-02-17T12:05:20.517Z,98883.19
2023-02-17T12:08:23.977Z,98866.13
2023-02-17T12:11:09.752Z,98866.03
2023-02-17T12:13:51.752Z,98873.00
2023-02-17T12:16:21.770Z,98866.28
2023-02-17T12:19:03.776Z,98863.59
2023-02-17T12:21:37.075Z,98861.03
2023-02-17T12:24:22.073Z,98861.03
2023-02-17T12:27:28.072Z,98858.47
2023-02-17T12:30:31.147Z,98850.75
2023-02-17T12:33:32.186Z,98846.09
2023-02-17T12:36:02.474Z,98836.50
2023-02-17T12:38:34.846Z,98835.44
2023-02-17T12:41:17.835Z,98827.22
2023-02-17T12:44:00.153Z,98826.88
2023-02-17T12:46:41.407Z,98817.03
2023-02-17T12:49:20.629Z,98823.16
2023-02-17T12:51:56.643Z,98812.31
2023-02-17T12:54:27.084Z,98805.59
2023-02-17T12:57:10.578Z,98796.69
2023-02-17T12:59:41.929Z,98803.25
2023-02-17T13:02:14.033Z,98804.09
2023-02-17T13:04:42.866Z,98798.84
2023-02-17T13:07:21.428Z,98793.38
2023-02-17T13:09:49.166Z,98786.19
2023-02-17T13:12:17.445Z,98785.78
2023-02-17T13:14:58.616Z,98781.38
2023-02-17T13:17:25.399Z,98781.94
2023-02-17T13:20:04.616Z,98784.19
2023-02-17T13:22:31.436Z,98781.94
2023-02-17T13:24:58.495Z,98769.06
2023-02-17T13:27:28.307Z,98770.31
2023-02-17T13:30:02.789Z,98765.81
2023-02-17T13:32:31.247Z,98766.47
2023-02-17T13:35:08.386Z,98758.75
2023-02-17T13:37:35.173Z,98755.88
2023-02-17T13:40:24.227Z,98739.97
2023-02-17T13:42:52.086Z,98741.66
2023-02-17T13:45:37.971Z,98746.63
2023-02-17T13:48:19.680Z,98743.53
2023-02-17T13:50:48.405Z,98738.69
2023-02-17T13:53:24.365Z,98733.00
2023-02-17T13:55:51.939Z,98732.75
2023-02-17T13:58:23.433Z,98741.25
2023-02-17T14:00:50.585Z,98744.25
2023-02-17T14:03:31.183Z,98737.53
2023-02-17T14:05:59.099Z,98737.28
2023-02-17T14:08:42.528Z,98725.66
2023-02-17T14:11:10.555Z,98720.19
2023-02-17T14:13:38.532Z,98711.19
2023-02-17T14:16:07.345Z,98723.56
2023-02-17T14:18:36.555Z,98712.47
2023-02-17T14:21:11.723Z,98703.34
2023-02-17T14:23:46.362Z,98695.84
2023-02-17T14:26:35.151Z,98697.88
2023-02-17T14:29:06.491Z,98695.59
2023-02-17T14:31:49.972Z,98692.19
2023-02-17T14:34:28.461Z,98675.19
2023-02-17T14:36:55.812Z,98675.84
2023-02-17T14:39:22.599Z,98663.06
2023-02-17T14:41:49.634Z,98662.44
2023-02-17T14:44:16.646Z,98664.56
2023-02-17T14:46:43.817Z,98662.22
2023-02-17T14:49:10.656Z,98657.25
2023-02-17T14:51:37.969Z,98660.59
2023-02-17T14:54:15.824Z,98656.59
2023-02-17T14:57:03.995Z,98652.53
2023-02-17T14:59:31.532Z,98649.63
2023-02-17T15:01:58.632Z,98647.28
2023-02-17T15:04:25.541Z,98633.63
2023-02-17T15:06:54.697Z,98636.00
2023-02-17T15:09:28.102Z,98641.47
2023-02-17T15:11:55.989Z,98631.69
2023-02-17T15:14:22.835Z,98639.31
2023-02-17T15:16:50.163Z,98643.50
2023-02-17T15:19:19.560Z,98636.06
2023-02-17T15:21:50.965Z,98622.75
2023-02-17T15:24:23.219Z,98616.63
2023-02-17T15:26:50.327Z,98605.47
2023-02-17T15:29:18.664Z,98606.88
2023-02-17T15:31:46.414Z,98605.78
2023-02-17T15:34:17.577Z,98594.09
2023-02-17T15:36:44.900Z,98590.75
2023-02-17T15:39:15.588Z,98577.66
2023-02-17T15:41:43.515Z,98575.38
2023-02-17T15:44:27.474Z,98586.03
2023-02-17T15:46:55.276Z,98570.66
2023-02-17T15:49:22.535Z,98555.59
2023-02-17T15:51:49.667Z,98555.84
2023-02-17T15:54:19.308Z,98559.59
2023-02-17T15:56:49.413Z,98571.28
2023-02-17T15:59:23.596Z,98570.97
2023-02-17T16:01:56.104Z,98569.03
2023-02-17T16:04:22.899Z,98559.28
2023-02-17T16:06:49.996Z,98562.06
2023-02-17T16:09:16.789Z,98556.69
2023-02-17T16:11:47.657Z,98556.47
2023-02-17T16:14:23.061Z,98557.53
2023-02-17T16:16:50.167Z,98554.84
2023-02-17T16:19:16.926Z,98549.47
2023-02-17T16:21:43.962Z,98552.16
2023-02-17T16:24:10.762Z,98533.16
2023-02-17T16:26:37.934Z,98531.19
2023-02-17T16:29:13.081Z,98527.78
2023-02-17T16:31:40.328Z,98521.88
2023-02-17T16:34:07.165Z,98522.63
2023-02-17T16:36:34.737Z,98517.34
2023-02-17T16:39:04.053Z,98521.56
2023-02-17T16:41:31.128Z,98515.19
2023-02-17T16:43:57.994Z,98516.06
2023-02-17T16:46:29.752Z,98513.50
2023-02-17T16:48:57.282Z,98506.28
2023-02-17T16:51:24.405Z,98505.22
2023-02-17T16:53:51.207Z,98497.09
2023-02-17T16:56:21.851Z,98495.25
2023-02-17T16:58:48.629Z,98492.63
2023-02-17T17:01:15.848Z,98489.03
2023-02-17T17:03:42.997Z,98487.19
2023-02-17T17:06:20.625Z,98485.97
2023-02-17T17:08:47.552Z,98490.50
2023-02-17T17:11:16.034Z,98491.47
2023-02-17T17:13:44.126Z,98495.44
2023-02-17T17:16:16.159Z,98483.66
2023-02-17T17:18:43.254Z,98471.81
2023-02-17T17:21:14.664Z,98472.66
2023-02-17T17:23:41.541Z,98475.44
2023-02-17T17:26:25.177Z,98470.50
2023-02-17T17:28:52.050Z,98469.53
2023-02-17T17:31:20.230Z,98477.47
2023-02-17T17:33:47.960Z,98468.56
2023-02-17T17:36:18.123Z,98470.25
2023-02-17T17:38:45.119Z,98489.84
2023-02-17T17:41:12.605Z,98487.00
2023-02-17T17:43:39.402Z,98493.16
2023-02-17T17:46:12.104Z,98491.53
2023-02-17T17:48:38.911Z,98478.94
2023-02-17T17:51:06.171Z,98491.44
2023-02-17T17:53:33.063Z,98480.34
2023-02-17T17:56:00.192Z,98478.84
2023-02-17T17:58:27.016Z,98473.47
2023-02-17T18:00:54.632Z,98462.28
2023-02-17T18:03:21.489Z,98459.91
2023-02-17T18:05:48.557Z,98463.88
2023-02-17T18:08:17.535Z,98476.44
2023-02-17T18:10:44.638Z,98482.44
2023-02-17T18:13:11.519Z,98475.59
2023-02-17T18:15:39.436Z,98467.66
2023-02-17T18:18:06.219Z,98476.09
2023-02-17T18:20:33.368Z,98479.53
2023-02-17T18:23:00.167Z,98474.28
2023-02-17T18:25:27.296Z,98467.72
2023-02-17T18:27:55.832Z,98464.41
2023-02-17T18:30:27.240Z,98464.28
2023-02-17T18:32:54.214Z,98461.34
2023-02-17T18:35:21.414Z,98470.16
2023-02-17T18:37:48.382Z,98470.41
2023-02-17T18:40:16.959Z,98457.56
2023-02-17T18:42:47.630Z,98461.59
2023-02-17T18:45:15.752Z,98457.69
2023-02-17T18:47:43.079Z,98459.66
2023-02-17T18:50:11.435Z,98462.84
2023-02-17T18:52:38.930Z,98466.25
2023-02-17T18:55:06.399Z,98473.38
2023-02-17T18:57:33.421Z,98466.16
2023-02-17T19:00:00.764Z,98454.56
2023-02-17T19:02:27.598Z,98463.97
2023-02-17T19:04:55.245Z,98470.31
2023-02-17T19:07:22.372Z,98477.41
2023-02-17T19:09:53.595Z,98472.16
2023-02-17T19:12:20.637Z,98459.31
2023-02-17T19:14:53.122Z,98464.47
2023-02-17T19:17:20.010Z,98479.75
2023-02-17T19:19:47.074Z,98484.16
2023-02-17T19:22:13.890Z,98481.47
2023-02-17T19:24:42.100Z,98484.81
2023-02-17T19:27:09.084Z,98484.81
2023-02-17T19:29:36.182Z,98486.50
2023-02-17T19:32:03.408Z,98470.88
2023-02-17T19:34:31.316Z,98477.97
2023-02-17T19:36:58.408Z,98475.41
2023-02-17T19:39:25.583Z,98479.81
2023-02-17T19:41:52.441Z,98481.16
2023-02-17T19:44:20.119Z,98480.44
2023-02-17T19:46:47.131Z,98483.84
2023-02-17T19:49:14.326Z,98487.63
2023-02-17T19:51:41.101Z,98475.91
2023-02-17T19:54:08.368Z,98482.34
2023-02-17T19:56:36.412Z,98457.56
2023-02-17T19:59:03.517Z,98452.19
2023-02-17T20:01:32.086Z,98436.06
2023-02-17T20:03:59.580Z,98433.25
2023-02-17T20:06:28.662Z,98449.03
2023-02-17T20:09:06.672Z,98446.25
2023-02-17T20:11:33.510Z,98463.00
2023-02-17T20:14:01.043Z,98465.81
2023-02-17T20:16:28.225Z,98460.19
2023-02-17T20:18:55.718Z,98473.53
2023-02-17T20:21:24.453Z,98478.03
2023-02-17T20:23:51.996Z,98467.91
2023-02-17T20:26:21.960Z,98463.16
2023-02-17T20:28:49.487Z,98466.44
2023-02-17T20:31:16.388Z,98466.91
2023-02-17T20:33:43.587Z,98459.06
2023-02-17T20:36:11.747Z,98455.91
2023-02-17T20:38:39.638Z,98447.13
2023-02-17T20:41:10.153Z,98436.84
2023-02-17T20:43:37.748Z,98435.63
2023-02-17T20:46:05.414Z,98446.38
2023-02-17T20:48:33.044Z,98428.66
2023-02-17T20:50:59.888Z,98430.13
2023-02-17T20:53:27.086Z,98425.47
2023-02-17T20:55:53.922Z,98430.63
2023-02-17T20:58:21.023Z,98433.31
2023-02-17T21:00:48.488Z,98432.00
2023-02-17T21:03:15.703Z,98434.56
2023-02-17T21:05:42.624Z,98420.34
2023-02-17T21:08:09.940Z,98431.88
2023-02-17T21:10:36.929Z,98426.34
2023-02-17T21:13:04.017Z,98422.56
2023-02-17T21:15:30.817Z,98415.34
2023-02-17T21:17:57.920Z,98416.34
2023-02-17T21:20:24.663Z,98428.66
2023-02-17T21:22:51.789Z,98423.16
2023-02-17T21:25:18.728Z,98405.06
2023-02-17T21:27:45.812Z,98423.91
2023-02-17T21:30:13.153Z,98431.97
2023-02-17T21:32:40.446Z,98437.13
2023-02-17T21:35:09.376Z,98433.34
2023-02-17T21:37:38.861Z,98418.75
2023-02-17T21:40:07.556Z,98398.22
2023-02-17T21:42:55.838Z,98421.47
2023-02-17T21:45:23.072Z,98415.22
2023-02-17T21:47:50.286Z,98416.78
2023-02-17T21:50:18.155Z,98407.88
2023-02-17T21:52:45.268Z,98402.25
2023-02-17T21:55:12.087Z,98406.53
2023-02-17T21:57:39.176Z,98420.97
2023-02-17T22:00:06.803Z,98431.63
2023-02-17T22:02:35.948Z,98422.53
2023-02-17T22:05:02.833Z,98430.91
2023-02-17T22:07:29.965Z,98426.00
2023-02-17T22:09:57.910Z,98418.75
2023-02-17T22:12:24.932Z,98416.06
2023-02-17T22:14:51.668Z,98434.81
2023-02-17T22:17:18.825Z,98448.16
2023-02-17T22:19:45.612Z,98459.88
2023-02-17T22:22:12.687Z,98452.69
2023-02-17T22:24:39.431Z,98465.03
2023-02-17T22:27:06.571Z,98467.72
2023-02-17T22:29:33.287Z,98461.50
2023-02-17T22:32:00.421Z,98471.38
2023-02-17T22:34:28.765Z,98475.56
2023-02-17T22:36:55.959Z,98477.28
2023-02-17T22:39:22.788Z,98486.94
2023-02-17T22:41:49.877Z,98494.41
2023-02-17T22:44:16.671Z,98495.88
2023-02-17T22:46:43.787Z,98489.03
2023-02-17T22:49:10.561Z,98499.56
2023-02-17T22:51:39.097Z,98490.47
2023-02-17T22:54:06.397Z,98472.03
2023-02-17T22:56:33.455Z,98484.25
2023-02-17T22:59:04.383Z,98467.34
2023-02-17T23:01:33.201Z,98471.28
2023-02-17T23:04:00.048Z,98475.13
2023-02-17T23:06:29.589Z,98475.84
2023-02-17T23:08:56.448Z,98482.19
2023-02-17T23:11:44.788Z,98474.84
2023-02-17T23:14:12.110Z,98475.00
2023-02-17T23:16:39.333Z,98465.06
2023-02-17T23:19:10.450Z,98466.75
2023-02-17T23:21:37.628Z,98458.69
2023-02-17T23:24:04.614Z,98469.22
2023-02-17T23:26:31.780Z,98478.16
2023-02-17T23:28:58.654Z,98477.16
2023-02-17T23:31:25.955Z,98474.59
2023-02-17T23:33:52.747Z,98479.03
2023-02-17T23:36:19.885Z,98481.59
2023-02-17T23:38:46.691Z,98477.16
2023-02-17T23:41:13.823Z,98477.16
2023-02-17T23:43:41.320Z,98475.59
2023-02-17T23:46:08.634Z,98486.25
2023-02-17T23:48:35.779Z,98486.13
2023-02-17T23:51:04.277Z,98495.78
2023-02-17T23:53:31.310Z,98487.69
2023-02-17T23:56:09.049Z,98491.25
2023-02-17T23:58:36.082Z,98503.03
